Time;durP1;ratioP1;P1;durP2;ratioP2;P2;SDS_P1;SDS_P2;PMS_P1;PMS_P2;Temp;Humidity;BMP_temperature;BMP_pressure;BME280_temperature;BME280_humidity;BME280_pressure;Samples;Min_cycle;Max_cycle;Signal;HPM_P1;HPM_P2
2020/12/25 00:00:12;;;;;;;1.70;1.30;;;2.20;99.90;;;;;;5036378;28;20249;-76
2020/12/25 00:02:38;;;;;;;1.40;1.30;;;2.30;99.90;;;;;;5026696;28;20251;-77
2020/12/25 00:05:03;;;;;;;1.40;1.30;;;2.30;99.90;;;;;;5031184;28;20593;-77
2020/12/25 00:07:29;;;;;;;1.30;1.17;;;2.30;99.90;;;;;;5028987;28;20215;-77
2020/12/25 00:09:54;;;;;;;0.97;0.90;;;2.30;99.90;;;;;;5026261;28;20551;-77
2020/12/25 00:12:20;;;;;;;1.23;0.90;;;2.30;99.90;;;;;;5030967;28;20191;-76
2020/12/25 00:14:45;;;;;;;1.17;1.07;;;2.30;99.90;;;;;;5033496;28;20270;-76
2020/12/25 00:17:11;;;;;;;0.80;0.80;;;2.30;99.90;;;;;;5033810;28;20191;-77
2020/12/25 00:19:36;;;;;;;1.07;1.07;;;2.30;99.90;;;;;;5029739;28;20254;-77
2020/12/25 00:22:02;;;;;;;2.10;1.50;;;2.40;99.90;;;;;;5027015;28;20226;-77
2020/12/25 00:24:27;;;;;;;0.90;0.90;;;2.40;99.90;;;;;;5048471;28;20191;-77
2020/12/25 00:26:53;;;;;;;0.70;0.70;;;2.40;99.90;;;;;;5030917;28;20219;-77
2020/12/25 00:29:18;;;;;;;0.63;0.50;;;2.40;99.90;;;;;;5027334;28;20199;-77
2020/12/25 00:31:45;;;;;;;0.67;0.67;;;2.40;99.90;;;;;;5028839;28;20260;-77
2020/12/25 00:34:11;;;;;;;0.70;0.50;;;2.30;99.90;;;;;;5027401;28;20183;-77
2020/12/25 00:36:42;;;;;;;0.70;0.70;;;2.30;99.90;;;;;;5032197;28;20183;-77
2020/12/25 00:39:09;;;;;;;0.57;0.40;;;2.30;99.90;;;;;;5026598;28;20266;-77
2020/12/25 00:41:38;;;;;;;0.95;0.85;;;2.20;99.90;;;;;;5027467;28;20203;-77
2020/12/25 00:44:04;;;;;;;0.50;0.40;;;2.20;99.90;;;;;;5029944;28;20226;-77
2020/12/25 00:46:29;;;;;;;0.80;0.80;;;2.20;99.90;;;;;;5032407;28;20214;-77
2020/12/25 00:48:55;;;;;;;0.83;0.83;;;2.10;99.90;;;;;;5033071;28;20702;-76
2020/12/25 00:51:22;;;;;;;1.13;1.13;;;2.10;99.90;;;;;;5035068;28;20196;-77
2020/12/25 00:53:48;;;;;;;0.90;0.90;;;2.10;99.90;;;;;;5030041;28;20558;-77
2020/12/25 00:56:15;;;;;;;1.20;0.75;;;2.10;99.90;;;;;;5036653;28;20574;-76
2020/12/25 00:58:41;;;;;;;1.13;1.10;;;2.10;99.90;;;;;;5032922;28;20557;-76
2020/12/25 01:01:09;;;;;;;1.50;0.95;;;2.10;99.90;;;;;;5031218;28;20693;-76
2020/12/25 01:03:36;;;;;;;1.27;1.17;;;2.20;99.90;;;;;;5031780;28;20191;-76
2020/12/25 01:06:02;;;;;;;0.82;0.82;;;2.20;99.90;;;;;;5031966;28;20191;-76
2020/12/25 01:08:27;;;;;;;1.02;1.02;;;2.30;99.90;;;;;;5034496;28;20186;-76
2020/12/25 01:10:53;;;;;;;1.40;1.23;;;2.20;99.90;;;;;;5036357;28;20183;-76
2020/12/25 01:13:19;;;;;;;2.25;1.38;;;2.10;99.90;;;;;;5028826;28;20729;-77
2020/12/25 01:15:44;;;;;;;1.60;1.50;;;2.20;99.90;;;;;;5032854;28;20274;-76
2020/12/25 01:18:10;;;;;;;1.50;1.30;;;2.10;99.90;;;;;;5034670;28;20218;-76
2020/12/25 01:20:36;;;;;;;2.10;1.13;;;2.10;99.90;;;;;;5032870;28;20218;-76
2020/12/25 01:23:02;;;;;;;1.43;1.30;;;2.10;99.90;;;;;;5028512;28;20222;-77
2020/12/25 01:25:28;;;;;;;1.70;1.30;;;2.10;99.90;;;;;;5032641;28;20821;-76
2020/12/25 01:27:54;;;;;;;1.27;1.17;;;2.20;99.90;;;;;;5033617;28;20259;-76
2020/12/25 01:30:19;;;;;;;1.10;1.00;;;2.20;99.90;;;;;;5032245;28;20545;-76
2020/12/25 01:32:45;;;;;;;1.20;1.10;;;2.20;99.90;;;;;;5033450;28;20244;-77
2020/12/25 01:35:10;;;;;;;1.63;1.53;;;2.30;99.90;;;;;;5031379;28;20194;-76
2020/12/25 01:37:36;;;;;;;1.33;1.27;;;2.30;99.90;;;;;;5031435;28;20184;-76
2020/12/25 01:40:02;;;;;;;2.03;1.83;;;2.30;99.90;;;;;;5032533;28;20690;-76
2020/12/25 01:42:27;;;;;;;1.47;1.37;;;2.50;99.90;;;;;;5030419;28;20225;-76
2020/12/25 01:44:52;;;;;;;1.40;1.30;;;2.40;99.90;;;;;;5026847;28;20442;-76
2020/12/25 01:47:19;;;;;;;1.67;1.50;;;2.40;99.90;;;;;;5028208;28;20219;-76
2020/12/25 01:49:45;;;;;;;2.22;2.03;;;2.50;99.90;;;;;;5031057;28;20183;-76
2020/12/25 01:52:12;;;;;;;1.90;1.77;;;2.50;99.90;;;;;;5026299;28;20608;-76
2020/12/25 01:54:38;;;;;;;2.00;1.85;;;2.50;99.90;;;;;;5026160;28;20187;-76
2020/12/25 01:57:04;;;;;;;3.15;2.65;;;2.50;99.90;;;;;;5028001;28;20193;-76
2020/12/25 01:59:31;;;;;;;2.47;2.17;;;2.60;99.90;;;;;;5030128;28;20207;-76
2020/12/25 02:01:58;;;;;;;3.38;2.75;;;2.60;99.90;;;;;;5030956;28;20195;-77
2020/12/25 02:04:23;;;;;;;3.65;2.67;;;2.60;99.90;;;;;;5031504;28;20198;-76
2020/12/25 02:06:49;;;;;;;3.33;2.97;;;2.70;99.90;;;;;;5028395;28;20187;-76
2020/12/25 02:09:15;;;;;;;4.28;2.75;;;2.70;99.90;;;;;;5031286;28;20209;-77
2020/12/25 02:11:41;;;;;;;4.13;3.10;;;2.70;99.90;;;;;;5028745;28;20263;-77
2020/12/25 02:14:07;;;;;;;4.10;3.15;;;2.70;99.90;;;;;;5025104;28;20195;-77
2020/12/25 02:16:32;;;;;;;3.57;3.27;;;2.70;99.90;;;;;;5030682;28;20525;-76
2020/12/25 02:18:58;;;;;;;4.50;3.57;;;2.70;99.90;;;;;;5028059;28;20571;-77
2020/12/25 02:21:23;;;;;;;5.73;3.60;;;2.80;99.90;;;;;;5026553;28;20244;-77
2020/12/25 02:23:49;;;;;;;3.53;3.23;;;2.80;99.90;;;;;;5031762;28;20180;-76
2020/12/25 02:26:15;;;;;;;6.50;3.60;;;2.80;99.90;;;;;;5025870;28;20237;-77
2020/12/25 02:28:41;;;;;;;6.18;4.57;;;2.80;99.90;;;;;;5031936;28;20187;-77
2020/12/25 02:31:07;;;;;;;3.70;3.30;;;2.80;99.90;;;;;;5030791;28;20189;-77
2020/12/25 02:33:33;;;;;;;4.82;4.00;;;2.90;99.90;;;;;;5031053;28;20544;-77
2020/12/25 02:35:58;;;;;;;3.58;2.90;;;2.90;99.90;;;;;;5023413;28;20194;-77
2020/12/25 02:38:24;;;;;;;5.80;4.03;;;2.80;99.90;;;;;;5030981;28;20187;-76
2020/12/25 02:40:50;;;;;;;4.75;3.85;;;2.90;99.90;;;;;;5031673;28;20308;-77
2020/12/25 02:43:16;;;;;;;5.07;4.50;;;2.90;99.90;;;;;;5030177;28;20183;-77
2020/12/25 02:45:41;;;;;;;4.77;3.87;;;2.90;99.90;;;;;;5030543;28;20266;-77
2020/12/25 02:48:07;;;;;;;6.63;4.10;;;2.90;99.90;;;;;;5028502;28;20230;-77
2020/12/25 02:50:34;;;;;;;4.33;3.80;;;2.90;99.90;;;;;;5031219;28;20230;-77
2020/12/25 02:52:59;;;;;;;4.50;3.88;;;2.90;99.90;;;;;;5030584;28;20237;-77
2020/12/25 02:55:25;;;;;;;6.17;4.50;;;2.90;99.90;;;;;;5032721;28;20563;-77
2020/12/25 02:57:50;;;;;;;4.47;4.07;;;2.90;99.90;;;;;;5031506;28;20190;-77
2020/12/25 03:00:16;;;;;;;4.13;3.73;;;3.00;99.90;;;;;;5031320;28;20643;-76
2020/12/25 03:02:41;;;;;;;7.87;4.20;;;2.90;99.90;;;;;;5029343;28;20175;-77
2020/12/25 03:05:06;;;;;;;4.90;3.33;;;3.00;99.90;;;;;;5031833;28;20241;-77
2020/12/25 03:07:32;;;;;;;5.73;4.77;;;3.00;99.90;;;;;;5032666;28;20647;-77
2020/12/25 03:09:57;;;;;;;6.47;4.23;;;3.00;99.90;;;;;;5035287;28;20190;-77
2020/12/25 03:12:23;;;;;;;5.87;4.60;;;2.90;99.90;;;;;;5037471;28;20186;-77
2020/12/25 03:14:48;;;;;;;5.93;3.77;;;3.00;99.90;;;;;;5035819;28;20552;-77
2020/12/25 03:17:14;;;;;;;5.37;3.93;;;3.00;99.90;;;;;;5034472;28;20674;-77
2020/12/25 03:19:39;;;;;;;3.23;2.93;;;3.00;99.90;;;;;;5033701;28;20218;-77
2020/12/25 03:22:05;;;;;;;4.07;3.63;;;3.00;99.90;;;;;;5032347;28;20187;-77
2020/12/25 03:24:30;;;;;;;4.97;4.10;;;3.00;99.90;;;;;;5034250;28;20183;-77
2020/12/25 03:26:56;;;;;;;4.60;3.90;;;3.00;99.90;;;;;;5034528;28;20197;-77
2020/12/25 03:29:21;;;;;;;4.90;3.37;;;3.10;99.90;;;;;;5034732;28;20237;-77
2020/12/25 03:31:47;;;;;;;4.07;3.30;;;3.10;99.90;;;;;;5033293;28;20294;-77
2020/12/25 03:34:13;;;;;;;4.83;4.40;;;3.10;99.90;;;;;;5028342;28;20266;-77
2020/12/25 03:36:39;;;;;;;4.15;3.80;;;3.10;99.90;;;;;;5034950;28;20194;-77
2020/12/25 03:39:05;;;;;;;5.90;4.57;;;3.10;99.90;;;;;;5030557;28;20274;-77
2020/12/25 03:41:31;;;;;;;6.38;4.00;;;3.00;99.90;;;;;;5034132;28;20229;-77
2020/12/25 03:43:56;;;;;;;6.27;4.23;;;3.10;99.90;;;;;;5031654;28;20187;-77
2020/12/25 03:46:22;;;;;;;4.43;3.87;;;3.10;99.90;;;;;;5029985;28;20202;-77
2020/12/25 03:48:48;;;;;;;7.20;4.63;;;3.10;99.90;;;;;;5033334;28;20227;-77
2020/12/25 03:51:13;;;;;;;4.27;3.83;;;3.10;99.90;;;;;;5033544;28;20248;-77
2020/12/25 03:53:39;;;;;;;4.80;3.90;;;3.10;99.90;;;;;;5065265;28;20277;-77
2020/12/25 03:56:04;;;;;;;4.47;3.90;;;3.10;99.90;;;;;;5034170;28;20264;-77
2020/12/25 03:58:30;;;;;;;4.13;3.23;;;3.20;99.90;;;;;;5032638;28;20667;-77
2020/12/25 04:00:55;;;;;;;8.37;3.70;;;3.10;99.90;;;;;;5032938;28;20230;-77
2020/12/25 04:03:21;;;;;;;4.17;3.77;;;3.20;99.90;;;;;;5030384;28;20175;-77
2020/12/25 04:05:47;;;;;;;5.27;3.80;;;3.20;99.90;;;;;;5033472;28;20187;-77
2020/12/25 04:08:12;;;;;;;3.50;3.20;;;3.20;99.90;;;;;;5033567;28;20183;-77
2020/12/25 04:10:38;;;;;;;4.03;3.63;;;3.20;99.90;;;;;;5034733;28;20179;-77
2020/12/25 04:13:05;;;;;;;2.93;2.60;;;3.30;99.90;;;;;;5023820;28;20188;-77
2020/12/25 04:15:31;;;;;;;5.25;4.10;;;3.20;99.90;;;;;;5033471;28;20237;-77
2020/12/25 04:17:56;;;;;;;3.30;2.97;;;3.20;99.90;;;;;;5029521;28;20667;-77
2020/12/25 04:20:22;;;;;;;4.23;3.83;;;3.20;99.90;;;;;;5033884;28;20972;-77
2020/12/25 04:22:48;;;;;;;3.80;3.43;;;3.20;99.90;;;;;;5032523;28;20191;-77
2020/12/25 04:25:13;;;;;;;5.07;3.23;;;3.20;99.90;;;;;;5029765;28;20195;-77
2020/12/25 04:27:39;;;;;;;3.87;3.40;;;3.20;99.90;;;;;;5030379;28;20311;-78
2020/12/25 04:30:05;;;;;;;4.20;3.80;;;3.20;99.90;;;;;;5032619;28;20195;-77
2020/12/25 04:32:30;;;;;;;7.00;3.33;;;3.10;99.90;;;;;;5028276;28;20183;-77
2020/12/25 04:34:56;;;;;;;4.77;3.63;;;3.10;99.90;;;;;;5033110;28;20945;-78
2020/12/25 04:37:21;;;;;;;4.67;3.00;;;3.10;99.90;;;;;;5031108;28;20245;-77
2020/12/25 04:39:47;;;;;;;3.50;2.57;;;3.10;99.90;;;;;;5032719;28;20694;-78
2020/12/25 04:42:12;;;;;;;3.50;3.07;;;3.10;99.90;;;;;;5032328;28;20599;-77
2020/12/25 04:44:38;;;;;;;3.77;3.20;;;3.10;99.90;;;;;;5033593;28;20187;-77
2020/12/25 04:47:12;;;;;;;3.97;3.57;;;3.10;99.90;;;;;;5029648;28;20593;-77
2020/12/25 04:49:38;;;;;;;2.95;2.35;;;3.00;99.90;;;;;;5026583;28;20191;-77
2020/12/25 04:52:05;;;;;;;2.92;2.50;;;3.00;99.90;;;;;;5030525;28;20184;-77
2020/12/25 04:54:31;;;;;;;3.85;2.95;;;2.90;99.90;;;;;;5030306;28;20242;-77
2020/12/25 04:56:58;;;;;;;3.77;2.90;;;2.90;99.90;;;;;;5031245;28;20195;-77
2020/12/25 04:59:25;;;;;;;5.28;3.15;;;2.90;99.90;;;;;;5032702;28;20822;-77
2020/12/25 05:01:53;;;;;;;3.70;2.83;;;2.90;99.90;;;;;;5030968;28;20183;-77
2020/12/25 05:04:19;;;;;;;5.93;3.50;;;2.90;99.90;;;;;;5033079;28;20539;-77
2020/12/25 05:06:47;;;;;;;3.42;2.95;;;2.90;99.90;;;;;;5030917;28;20265;-77
2020/12/25 05:09:15;;;;;;;4.88;3.05;;;2.90;99.90;;;;;;5028056;28;20564;-77
2020/12/25 05:11:41;;;;;;;3.55;2.78;;;2.90;99.90;;;;;;5031197;28;20181;-77
2020/12/25 05:14:06;;;;;;;3.57;2.97;;;2.90;99.90;;;;;;5033054;28;20238;-77
2020/12/25 05:16:33;;;;;;;3.47;2.80;;;2.90;99.90;;;;;;5029503;28;20579;-78
2020/12/25 05:18:59;;;;;;;2.70;2.45;;;2.90;99.90;;;;;;5032643;28;20184;-78
2020/12/25 05:21:25;;;;;;;3.37;3.07;;;2.90;99.90;;;;;;5027915;28;20237;-77
2020/12/25 05:23:50;;;;;;;4.07;3.03;;;2.90;99.90;;;;;;5031659;28;20438;-77
2020/12/25 05:26:17;;;;;;;4.57;3.20;;;3.00;99.90;;;;;;5032166;28;20192;-77
2020/12/25 05:28:45;;;;;;;3.65;3.05;;;3.00;99.90;;;;;;5032450;28;20601;-77
2020/12/25 05:31:12;;;;;;;3.63;3.05;;;2.90;99.90;;;;;;5028208;28;20194;-77
2020/12/25 05:33:38;;;;;;;4.65;3.22;;;3.00;99.90;;;;;;5029877;28;20270;-78
2020/12/25 05:36:09;;;;;;;4.50;3.10;;;3.00;99.90;;;;;;5030610;28;20186;-77
2020/12/25 05:38:37;;;;;;;3.58;3.13;;;3.00;99.90;;;;;;5060412;28;20678;-77
2020/12/25 05:41:05;;;;;;;4.85;3.15;;;3.00;99.90;;;;;;5031497;28;20241;-78
2020/12/25 05:43:31;;;;;;;4.57;3.65;;;3.00;99.90;;;;;;5028493;28;20183;-77
2020/12/25 05:45:57;;;;;;;3.15;2.95;;;2.90;99.90;;;;;;5027004;28;20667;-77
2020/12/25 05:48:22;;;;;;;4.80;3.23;;;2.90;99.90;;;;;;5023641;28;20342;-77
2020/12/25 05:50:48;;;;;;;5.00;3.50;;;2.90;99.90;;;;;;5029919;28;20225;-77
2020/12/25 05:53:14;;;;;;;3.90;3.53;;;2.90;99.90;;;;;;5031222;28;20183;-77
2020/12/25 05:55:40;;;;;;;4.43;3.57;;;2.90;99.90;;;;;;5063999;28;20179;-77
2020/12/25 05:58:06;;;;;;;4.22;3.70;;;2.90;99.90;;;;;;5029158;28;20214;-78
2020/12/25 06:00:33;;;;;;;4.77;3.87;;;2.80;99.90;;;;;;5031447;28;20250;-77
2020/12/25 06:02:59;;;;;;;5.97;3.50;;;2.80;99.90;;;;;;5031223;28;20206;-77
2020/12/25 06:05:26;;;;;;;4.95;3.38;;;2.80;99.90;;;;;;5029268;28;20258;-77
2020/12/25 06:07:54;;;;;;;5.38;4.28;;;2.80;99.90;;;;;;5030948;28;20667;-77
2020/12/25 06:10:23;;;;;;;4.85;4.28;;;2.90;99.90;;;;;;5032078;28;20624;-77
2020/12/25 06:12:49;;;;;;;6.28;4.13;;;2.80;99.90;;;;;;5030809;28;20269;-78
2020/12/25 06:15:30;;;;;;;5.35;3.95;;;2.80;99.90;;;;;;5031043;28;20191;-78
2020/12/25 06:18:14;;;;;;;5.05;3.70;;;2.80;99.90;;;;;;5023515;28;20272;-78
2020/12/25 06:20:49;;;;;;;4.80;4.05;;;2.80;99.90;;;;;;5030892;28;20714;-78
2020/12/25 06:23:17;;;;;;;7.80;4.85;;;2.80;99.90;;;;;;5030464;28;20190;-78
2020/12/25 06:25:43;;;;;;;4.68;3.63;;;2.80;99.90;;;;;;5032070;28;20236;-78
2020/12/25 06:28:08;;;;;;;6.70;4.25;;;2.80;99.90;;;;;;5022964;28;20180;-77
2020/12/25 06:30:35;;;;;;;7.17;4.60;;;2.80;99.90;;;;;;5032175;28;20195;-77
2020/12/25 06:33:01;;;;;;;7.43;5.05;;;2.90;99.90;;;;;;5031193;28;20202;-78
2020/12/25 06:35:28;;;;;;;6.32;4.82;;;2.90;99.90;;;;;;5031645;28;20183;-78
2020/12/25 06:37:54;;;;;;;5.63;4.25;;;2.90;99.90;;;;;;5038229;28;20203;-77
2020/12/25 06:40:24;;;;;;;3.90;3.50;;;2.90;99.90;;;;;;5034337;28;20307;-78
2020/12/25 06:42:53;;;;;;;7.32;4.93;;;2.90;99.90;;;;;;5035812;28;20269;-78
2020/12/25 06:45:22;;;;;;;5.05;4.20;;;2.90;99.90;;;;;;5034942;28;20550;-78
2020/12/25 06:47:48;;;;;;;5.55;4.60;;;2.90;99.90;;;;;;5035558;28;20233;-78
2020/12/25 06:50:15;;;;;;;5.03;4.13;;;2.90;99.90;;;;;;5035216;28;20180;-78
2020/12/25 06:53:10;;;;;;;6.70;4.40;;;2.80;99.90;;;;;;5027449;28;20549;-77
2020/12/25 06:55:42;;;;;;;7.50;4.70;;;2.80;99.90;;;;;;5034182;28;20253;-78
2020/12/25 06:58:09;;;;;;;4.80;4.05;;;2.80;99.90;;;;;;5032119;28;20187;-77
2020/12/25 07:00:34;;;;;;;4.70;3.92;;;2.80;99.90;;;;;;5034426;28;20214;-77
2020/12/25 07:03:13;;;;;;;6.10;4.00;;;2.80;99.90;;;;;;5034708;28;20183;-78
2020/12/25 07:05:49;;;;;;;5.32;4.80;;;2.80;99.90;;;;;;5034716;28;20194;-78
2020/12/25 07:08:52;;;;;;;5.28;4.03;;;2.90;99.90;;;;;;5032793;28;20181;-78
2020/12/25 07:11:19;;;;;;;5.03;3.45;;;2.90;99.90;;;;;;5019039;28;20213;-78
2020/12/25 07:13:44;;;;;;;4.18;3.10;;;2.90;99.90;;;;;;5034483;28;20799;-78
2020/12/25 07:16:10;;;;;;;4.03;3.63;;;2.80;99.90;;;;;;5033761;28;20247;-78
2020/12/25 07:18:36;;;;;;;4.60;3.37;;;2.80;99.90;;;;;;5033670;28;20433;-77
2020/12/25 07:21:03;;;;;;;4.23;3.63;;;2.80;99.90;;;;;;5037496;28;20222;-78
2020/12/25 07:23:29;;;;;;;3.30;2.78;;;2.70;99.90;;;;;;5033639;28;20612;-77
2020/12/25 07:26:00;;;;;;;3.93;3.13;;;2.70;99.90;;;;;;5033351;28;20270;-77
2020/12/25 07:28:27;;;;;;;4.70;3.15;;;2.60;99.90;;;;;;5031274;28;20209;-77
2020/12/25 07:30:57;;;;;;;4.13;3.03;;;2.60;99.90;;;;;;5034231;28;20187;-78
2020/12/25 07:33:23;;;;;;;7.90;3.08;;;2.60;99.90;;;;;;5030366;28;20180;-78
2020/12/25 07:35:50;;;;;;;3.67;2.60;;;2.60;99.90;;;;;;5029712;28;20191;-77
2020/12/25 07:38:16;;;;;;;2.90;2.08;;;2.60;99.90;;;;;;5033566;28;20577;-77
2020/12/25 07:40:43;;;;;;;2.80;2.60;;;2.60;99.90;;;;;;5033678;28;20219;-77
2020/12/25 07:43:12;;;;;;;2.97;2.40;;;2.50;99.90;;;;;;5034272;28;20180;-78
2020/12/25 07:45:38;;;;;;;3.40;2.50;;;2.50;99.90;;;;;;5033785;28;20198;-77
2020/12/25 07:48:05;;;;;;;3.30;3.00;;;2.50;99.90;;;;;;5032902;28;20226;-77
2020/12/25 07:50:38;;;;;;;3.05;2.53;;;2.50;99.90;;;;;;5034406;28;20434;-77
2020/12/25 07:53:09;;;;;;;3.10;2.88;;;2.60;99.90;;;;;;5033686;28;20175;-79
2020/12/25 07:55:34;;;;;;;3.80;3.40;;;2.60;99.90;;;;;;5034536;28;20193;-76
2020/12/25 07:58:01;;;;;;;3.77;2.73;;;2.50;99.90;;;;;;5030580;28;20730;-77
2020/12/25 08:00:27;;;;;;;3.95;3.15;;;2.50;99.90;;;;;;5035073;28;20265;-75
2020/12/25 08:02:53;;;;;;;4.77;3.43;;;2.50;99.90;;;;;;5034360;28;20578;-75
2020/12/25 08:05:19;;;;;;;6.60;3.80;;;2.60;99.90;;;;;;5031102;28;20237;-76
2020/12/25 08:07:46;;;;;;;3.85;2.95;;;2.50;99.90;;;;;;5030617;28;20234;-76
2020/12/25 08:10:17;;;;;;;4.70;2.70;;;2.50;99.90;;;;;;5032491;28;20183;-76
2020/12/25 08:12:44;;;;;;;4.53;4.13;;;2.50;99.90;;;;;;5030590;28;20261;-76
2020/12/25 08:15:12;;;;;;;3.83;3.10;;;2.60;99.90;;;;;;5032196;28;20187;-76
2020/12/25 08:17:38;;;;;;;3.45;3.15;;;2.50;99.90;;;;;;5033456;28;20233;-77
2020/12/25 08:20:04;;;;;;;3.77;3.40;;;2.60;99.90;;;;;;5031568;28;20757;-76
2020/12/25 08:22:29;;;;;;;3.97;3.40;;;2.60;99.90;;;;;;5031578;28;20171;-76
2020/12/25 08:24:56;;;;;;;4.03;3.63;;;2.60;99.90;;;;;;5031430;28;20200;-76
2020/12/25 08:27:22;;;;;;;4.68;2.95;;;2.60;99.90;;;;;;5029482;28;20171;-76
2020/12/25 08:29:51;;;;;;;4.30;3.00;;;2.60;99.90;;;;;;5036793;28;20213;-76
2020/12/25 08:32:17;;;;;;;5.05;4.55;;;2.60;99.90;;;;;;5033362;28;20701;-76
2020/12/25 08:34:42;;;;;;;5.47;4.13;;;2.60;99.90;;;;;;5032394;28;20191;-75
2020/12/25 08:37:09;;;;;;;8.30;5.20;;;2.60;99.90;;;;;;5028922;28;20603;-75
2020/12/25 08:39:35;;;;;;;6.50;5.55;;;2.60;99.90;;;;;;5031176;28;20545;-75
2020/12/25 08:42:01;;;;;;;9.32;5.68;;;2.60;99.90;;;;;;5029654;28;20200;-75
2020/12/25 08:44:27;;;;;;;7.65;5.05;;;2.60;99.90;;;;;;5033894;28;20214;-75
2020/12/25 08:47:10;;;;;;;10.00;6.15;;;2.70;99.90;;;;;;5030620;28;20215;-76
2020/12/25 08:49:36;;;;;;;9.52;6.47;;;2.70;99.90;;;;;;5031867;28;20241;-76
2020/12/25 08:52:02;;;;;;;8.50;6.20;;;2.80;99.90;;;;;;5032280;28;20191;-76
2020/12/25 08:54:28;;;;;;;16.03;8.13;;;2.80;99.90;;;;;;5025459;28;20933;-76
2020/12/25 08:56:54;;;;;;;18.15;10.50;;;2.90;99.90;;;;;;5034559;28;20525;-76
2020/12/25 08:59:21;;;;;;;18.83;9.75;;;2.90;99.90;;;;;;5031990;28;20189;-76
2020/12/25 09:01:48;;;;;;;15.57;9.55;;;2.90;99.90;;;;;;5031833;28;20195;-76
2020/12/25 09:04:18;;;;;;;12.85;8.35;;;3.00;99.90;;;;;;5046178;28;20635;-76
2020/12/25 09:06:45;;;;;;;12.50;7.95;;;3.00;99.90;;;;;;5032086;28;20194;-76
2020/12/25 09:09:10;;;;;;;16.20;10.05;;;3.10;99.90;;;;;;5036359;28;20176;-76
2020/12/25 09:11:36;;;;;;;26.73;12.10;;;3.10;99.90;;;;;;5031274;28;20670;-75
2020/12/25 09:14:02;;;;;;;15.90;10.47;;;3.20;99.90;;;;;;5029902;28;20183;-75
2020/12/25 09:16:28;;;;;;;11.35;9.25;;;3.20;99.90;;;;;;5035263;28;20188;-76
2020/12/25 09:18:53;;;;;;;16.00;9.10;;;3.20;99.90;;;;;;5032660;28;20178;-75
2020/12/25 09:21:19;;;;;;;17.90;10.30;;;3.20;99.90;;;;;;5031674;28;20219;-75
2020/12/25 09:23:45;;;;;;;15.63;8.87;;;3.30;99.90;;;;;;5034846;28;20638;-75
2020/12/25 09:26:12;;;;;;;16.80;10.23;;;3.30;99.90;;;;;;5030241;28;20183;-75
2020/12/25 09:28:39;;;;;;;11.15;7.50;;;3.40;99.90;;;;;;5031157;28;20441;-74
2020/12/25 09:31:06;;;;;;;10.52;7.40;;;3.40;99.90;;;;;;5025168;28;20264;-75
2020/12/25 09:33:32;;;;;;;13.07;8.88;;;3.50;99.90;;;;;;5032111;28;20214;-75
2020/12/25 09:35:58;;;;;;;15.70;9.53;;;3.50;99.90;;;;;;5028195;28;20718;-75
2020/12/25 09:38:23;;;;;;;11.83;7.90;;;3.60;99.90;;;;;;5029275;28;20654;-75
2020/12/25 09:40:50;;;;;;;14.70;8.80;;;3.60;99.90;;;;;;5032183;28;20230;-75
2020/12/25 09:43:16;;;;;;;12.52;8.20;;;3.80;99.90;;;;;;5031101;28;20183;-75
2020/12/25 09:45:42;;;;;;;16.40;9.27;;;3.80;99.90;;;;;;5027841;28;20729;-75
2020/12/25 09:48:07;;;;;;;11.33;8.60;;;3.90;99.90;;;;;;5029595;28;20505;-78
2020/12/25 09:50:33;;;;;;;11.57;7.50;;;3.80;99.90;;;;;;5031758;28;20213;-75
2020/12/25 09:52:59;;;;;;;15.68;9.40;;;3.90;99.90;;;;;;5025317;28;20698;-75
2020/12/25 09:55:26;;;;;;;16.60;8.17;;;3.80;99.90;;;;;;5029481;28;20183;-75
2020/12/25 09:57:52;;;;;;;16.33;8.93;;;3.80;99.90;;;;;;5028811;28;20537;-75
2020/12/25 10:00:17;;;;;;;11.00;8.07;;;3.80;99.90;;;;;;5032013;28;20227;-75
2020/12/25 10:02:43;;;;;;;10.90;7.23;;;3.80;99.90;;;;;;5028381;28;20189;-75
2020/12/25 10:05:10;;;;;;;13.80;9.03;;;3.80;99.90;;;;;;5031136;28;20186;-75
2020/12/25 10:07:36;;;;;;;12.52;7.75;;;3.80;99.90;;;;;;5030847;28;20179;-78
2020/12/25 10:10:06;;;;;;;15.83;9.13;;;3.80;99.90;;;;;;5032398;28;20183;-74
2020/12/25 10:12:31;;;;;;;11.50;7.72;;;3.80;99.90;;;;;;5026562;28;20898;-74
2020/12/25 10:14:57;;;;;;;15.57;9.20;;;3.80;99.90;;;;;;5028187;28;20194;-76
2020/12/25 10:17:23;;;;;;;13.90;8.63;;;3.70;99.90;;;;;;5034670;28;20241;-76
2020/12/25 10:19:48;;;;;;;11.90;8.70;;;3.80;99.90;;;;;;5043661;28;20305;-75
2020/12/25 10:22:14;;;;;;;16.20;10.90;;;3.80;99.90;;;;;;5028508;28;20217;-74
2020/12/25 10:24:39;;;;;;;18.10;10.30;;;3.80;99.90;;;;;;5031350;28;20191;-74
2020/12/25 10:27:05;;;;;;;15.50;8.70;;;4.00;99.90;;;;;;5029626;28;20519;-75
2020/12/25 10:29:31;;;;;;;21.40;10.07;;;4.30;99.90;;;;;;5031811;28;20316;-74
2020/12/25 10:31:57;;;;;;;14.80;10.03;;;4.70;99.90;;;;;;5030618;28;20286;-77
2020/12/25 10:34:22;;;;;;;14.00;8.90;;;4.90;99.90;;;;;;5037093;28;20434;-75
2020/12/25 10:36:48;;;;;;;16.13;10.10;;;5.00;99.90;;;;;;5025774;28;20179;-75
2020/12/25 10:39:15;;;;;;;13.27;9.13;;;5.10;99.90;;;;;;5026554;28;20190;-74
2020/12/25 10:41:41;;;;;;;13.23;7.93;;;5.10;99.90;;;;;;5028868;28;20286;-75
2020/12/25 10:44:07;;;;;;;14.13;8.73;;;5.10;99.90;;;;;;5026317;28;20662;-74
2020/12/25 10:46:32;;;;;;;13.00;8.25;;;5.00;99.90;;;;;;5023069;28;20975;-77
2020/12/25 10:48:58;;;;;;;11.90;8.67;;;4.90;99.90;;;;;;5031649;28;20199;-75
2020/12/25 10:51:23;;;;;;;12.07;8.10;;;4.80;99.90;;;;;;5030086;28;20187;-77
2020/12/25 10:53:49;;;;;;;12.13;8.33;;;4.60;99.90;;;;;;5030503;28;20191;-75
2020/12/25 10:56:24;;;;;;;13.23;8.00;;;4.50;99.90;;;;;;5029995;28;20200;-74
2020/12/25 10:58:50;;;;;;;14.30;8.60;;;4.40;99.90;;;;;;5025189;28;20492;-75
2020/12/25 11:01:27;;;;;;;14.70;9.27;;;4.30;99.90;;;;;;5028177;28;20215;-75
2020/12/25 11:03:54;;;;;;;13.93;8.73;;;4.30;99.90;;;;;;5025953;28;20650;-74
2020/12/25 11:06:28;;;;;;;10.32;8.43;;;4.20;99.90;;;;;;5028078;28;20219;-77
2020/12/25 11:08:54;;;;;;;9.68;7.38;;;4.30;99.90;;;;;;5034214;28;20186;-77
2020/12/25 11:11:27;;;;;;;12.87;8.83;;;4.30;99.90;;;;;;5029160;28;20202;-77
2020/12/25 11:13:52;;;;;;;11.45;7.78;;;4.40;99.90;;;;;;5027185;28;20518;-77
2020/12/25 11:16:22;;;;;;;12.10;7.87;;;4.30;99.90;;;;;;5035217;28;20279;-77
2020/12/25 11:18:47;;;;;;;9.70;6.55;;;4.30;99.90;;;;;;5026848;28;20241;-77
2020/12/25 11:21:27;;;;;;;11.07;6.23;;;4.30;99.90;;;;;;5032041;28;20231;-77
2020/12/25 11:23:53;;;;;;;13.60;7.30;;;4.20;99.90;;;;;;5032431;28;20194;-77
2020/12/25 11:26:23;;;;;;;11.65;6.82;;;4.20;99.90;;;;;;5039920;28;20218;-77
2020/12/25 11:28:52;;;;;;;10.40;6.88;;;4.10;99.90;;;;;;5036829;28;20222;-77
2020/12/25 11:31:20;;;;;;;10.63;7.18;;;4.10;99.90;;;;;;5033103;28;20175;-77
2020/12/25 11:33:46;;;;;;;15.38;6.80;;;4.10;99.90;;;;;;5031468;28;20206;-77
2020/12/25 11:36:16;;;;;;;16.13;6.50;;;4.10;99.90;;;;;;5028209;28;20261;-77
2020/12/25 11:38:43;;;;;;;9.40;6.53;;;4.10;99.90;;;;;;5030246;28;20789;-77
2020/12/25 11:41:10;;;;;;;8.98;6.55;;;4.20;99.90;;;;;;5034510;28;20265;-77
2020/12/25 11:43:36;;;;;;;8.63;6.30;;;4.30;99.90;;;;;;5033702;28;20179;-77
2020/12/25 11:46:03;;;;;;;10.82;6.95;;;4.30;99.90;;;;;;5031422;28;20184;-77
2020/12/25 11:48:28;;;;;;;10.65;7.75;;;4.30;99.90;;;;;;5033011;28;20222;-76
2020/12/25 11:50:55;;;;;;;9.40;6.23;;;4.30;99.90;;;;;;5034331;28;20214;-77
2020/12/25 11:53:21;;;;;;;8.10;5.95;;;4.20;99.90;;;;;;5033982;28;21494;-84
2020/12/25 11:55:47;;;;;;;10.47;8.03;;;4.20;99.90;;;;;;5035295;28;20191;-79
2020/12/25 11:58:13;;;;;;;8.82;7.05;;;4.30;99.90;;;;;;5032767;28;20439;-76
2020/12/25 12:00:39;;;;;;;12.47;6.80;;;4.40;99.90;;;;;;5037571;28;20690;-76
2020/12/25 12:03:04;;;;;;;10.73;8.27;;;4.60;99.90;;;;;;5034115;28;20191;-76
2020/12/25 12:05:29;;;;;;;15.63;8.57;;;5.80;99.90;;;;;;5030435;28;20202;-76
2020/12/25 12:07:55;;;;;;;10.80;8.27;;;8.20;99.90;;;;;;5029696;28;20686;-76
2020/12/25 12:10:21;;;;;;;14.40;9.70;;;11.00;99.90;;;;;;5037391;28;20274;-74
2020/12/25 12:12:46;;;;;;;9.63;7.40;;;13.70;99.90;;;;;;5031033;28;20183;-75
2020/12/25 12:15:11;;;;;;;10.70;9.33;;;16.00;97.40;;;;;;5028740;28;20546;-75
2020/12/25 12:17:37;;;;;;;10.07;6.80;;;16.30;76.80;;;;;;5032334;28;20207;-75
2020/12/25 12:20:03;;;;;;;9.47;6.83;;;15.60;75.00;;;;;;5033312;28;20211;-75
2020/12/25 12:22:29;;;;;;;6.93;5.60;;;14.50;75.70;;;;;;5037314;28;20205;-75
2020/12/25 12:24:54;;;;;;;6.10;5.50;;;13.20;69.00;;;;;;5035654;28;20522;-75
2020/12/25 12:27:20;;;;;;;6.20;5.60;;;12.20;70.90;;;;;;5029138;28;20228;-75
2020/12/25 12:29:45;;;;;;;8.10;5.10;;;11.20;71.00;;;;;;5034057;28;20346;-74
2020/12/25 12:32:10;;;;;;;7.30;4.77;;;10.30;74.50;;;;;;5033671;28;20222;-74
2020/12/25 12:34:37;;;;;;;5.40;4.70;;;9.50;75.90;;;;;;5033923;28;20673;-75
2020/12/25 12:37:03;;;;;;;5.28;4.78;;;8.70;77.30;;;;;;5032261;28;20229;-75
2020/12/25 12:39:28;;;;;;;5.57;4.27;;;8.10;78.10;;;;;;5031126;28;20666;-77
2020/12/25 12:41:57;;;;;;;4.60;4.20;;;7.60;75.50;;;;;;5026492;28;20928;-77
2020/12/25 12:44:22;;;;;;;9.38;7.32;;;7.10;78.60;;;;;;5028834;28;20191;-74
2020/12/25 12:46:52;;;;;;;16.20;13.67;;;6.60;82.10;;;;;;5029215;28;20651;-77
2020/12/25 12:49:18;;;;;;;10.25;7.53;;;6.20;85.60;;;;;;5036098;28;20171;-75